»·PEaware :: ASA318 KSFO-KPDX

ASA318 :: KSFO-KPDX

FLIGHT INFORMATION

Flight Status: Arrived
Operator:
Alaska Airlines
More flights by this operator :: More flights under this callsign
Pilot: Patricio R. (14780)
Aircraft: AIRBUS A320
(A320)
More flights by this aircraft type
Origin: KSFO San Francisco Intl
United States
Destination: KPDX Portland Intl
United States
More flights between these airports :: More routes between these airports
Route: TRUKN2 GRTFL MACHU TMBRS2
File this flight plan on PilotEdge
Remarks: PBN / A1B1C1D1O1S1 DOF / 180823 REG / FFA320 EET / KZSE0036 OPR / ASA PER / C RMK / TCAS SIMBRIEF
Altitude:
(Current/Filed)
36,000ft
Speed:
(Current/Filed)
434kts
Departed: 22-Aug-18 06:42 PM
Arrived: 22-Aug-18 08:02 PM
Distance/Time
Traveled:
478nm/1:20
Distance/Time
To Go:
Arrived

Flight Plot

Page will automatically refresh every two minutes.


Map Options




Map Legend


Flown Route
Filed Route
Departure Airport
Arrival Airport
Navaid (VOR, NDB)
Fix

Horizontal Profiles

Position Reports

Time Latitude Longitude Heading Altitude Ground
Speed
22-Aug-18 18:35 37.616189 -122.382270 86 35ft 1kts
22-Aug-18 18:36 37.616189 -122.382278 86 35ft 0kts
22-Aug-18 18:37 37.616189 -122.382278 86 35ft 0kts
22-Aug-18 18:38 37.616189 -122.382278 86 35ft 0kts
22-Aug-18 18:39 37.616196 -122.381983 93 35ft 7kts
22-Aug-18 18:40 37.615653 -122.380628 142 35ft 9kts
22-Aug-18 18:41 37.611622 -122.382955 209 35ft 20kts
22-Aug-18 18:42 37.609232 -122.382027 28 33ft 22kts
22-Aug-18 18:43 37.644899 -122.354700 52 1568ft 216kts
22-Aug-18 18:44 37.682262 -122.282535 56 4744ft 282kts
22-Aug-18 18:45 37.736951 -122.214786 2 8536ft 295kts
22-Aug-18 18:46 37.822382 -122.217010 358 11414ft 338kts
22-Aug-18 18:47 37.918389 -122.219776 357 14610ft 354kts
22-Aug-18 18:48 38.017878 -122.222504 358 17560ft 365kts
22-Aug-18 18:49 38.120149 -122.225237 358 20144ft 375kts
22-Aug-18 18:50 38.224973 -122.228039 358 22442ft 385kts
22-Aug-18 18:51 38.333116 -122.230938 358 24564ft 393kts
22-Aug-18 18:52 38.443068 -122.240884 355 26425ft 402kts
22-Aug-18 18:53 38.555479 -122.252556 355 28110ft 410kts
22-Aug-18 18:54 38.669705 -122.264460 355 29615ft 418kts
22-Aug-18 18:55 38.786208 -122.276649 354 30996ft 424kts
22-Aug-18 18:56 38.904518 -122.289067 354 32325ft 427kts
22-Aug-18 18:57 39.022240 -122.301481 353 33750ft 425kts
22-Aug-18 18:58 39.138872 -122.313801 353 35000ft 424kts
22-Aug-18 18:59 39.255669 -122.326181 353 35994ft 424kts
22-Aug-18 19:00 39.372558 -122.338617 353 36006ft 426kts
22-Aug-18 19:01 39.492357 -122.351373 353 36005ft 436kts
22-Aug-18 19:02 39.612477 -122.364257 353 36003ft 434kts
22-Aug-18 19:03 39.732746 -122.377183 353 36003ft 434kts
22-Aug-18 19:04 39.852569 -122.390103 353 36001ft 434kts
22-Aug-18 19:05 39.972087 -122.383235 27 36014ft 450kts
22-Aug-18 19:06 40.089296 -122.352845 351 36052ft 438kts
22-Aug-18 19:07 40.208297 -122.371277 351 36006ft 434kts
22-Aug-18 19:08 40.327897 -122.389514 351 35970ft 432kts
22-Aug-18 19:09 40.446642 -122.407648 351 35953ft 432kts
22-Aug-18 19:10 40.565835 -122.425911 351 35968ft 432kts
22-Aug-18 19:11 40.684904 -122.444222 351 35984ft 433kts
22-Aug-18 19:12 40.804229 -122.462640 351 36100ft 433kts
22-Aug-18 19:13 40.923529 -122.481120 351 36091ft 433kts
22-Aug-18 19:14 41.042797 -122.499664 351 36151ft 433kts
22-Aug-18 19:15 41.159957 -122.517944 351 36146ft 433kts
22-Aug-18 19:16 41.279346 -122.536641 352 36144ft 433kts
22-Aug-18 19:17 41.398511 -122.555373 352 36143ft 433kts
22-Aug-18 19:18 41.518105 -122.574093 353 36143ft 434kts
22-Aug-18 19:19 41.638228 -122.582672 355 36055ft 434kts
22-Aug-18 19:20 41.758511 -122.590534 356 36058ft 434kts
22-Aug-18 19:21 41.878992 -122.598417 356 36059ft 434kts
22-Aug-18 19:22 41.999421 -122.606325 356 36059ft 434kts
22-Aug-18 19:23 42.119493 -122.614236 356 35974ft 434kts
22-Aug-18 19:24 42.239613 -122.622505 355 35985ft 434kts
22-Aug-18 19:25 42.359737 -122.631283 355 35985ft 435kts
22-Aug-18 19:26 42.479974 -122.639704 356 35989ft 435kts
22-Aug-18 19:27 42.588259 -122.646527 356 35990ft 435kts
22-Aug-18 19:28 42.708498 -122.654077 355 35990ft 435kts
22-Aug-18 19:29 42.828680 -122.661967 355 35984ft 435kts
22-Aug-18 19:30 42.949482 -122.670060 355 35985ft 435kts
22-Aug-18 19:31 43.070122 -122.678289 355 36013ft 435kts
22-Aug-18 19:32 43.190045 -122.686495 355 36014ft 435kts
22-Aug-18 19:33 43.310474 -122.694780 355 36010ft 435kts
22-Aug-18 19:34 43.428584 -122.702934 355 36011ft 436kts
22-Aug-18 19:35 43.527635 -122.709763 355 36013ft 436kts
22-Aug-18 19:36 43.647925 -122.718091 355 35366ft 435kts
22-Aug-18 19:37 43.748219 -122.725050 355 34423ft 433kts
22-Aug-18 19:38 43.886851 -122.734718 356 31283ft 438kts
22-Aug-18 19:39 43.987774 -122.741789 356 29221ft 433kts
22-Aug-18 19:40 44.103865 -122.749982 355 27123ft 418kts
22-Aug-18 19:41 44.213671 -122.746848 2 25050ft 407kts
22-Aug-18 19:42 44.325079 -122.735906 2 22708ft 398kts
22-Aug-18 19:43 44.450711 -122.723514 2 20233ft 381kts
22-Aug-18 19:44 44.536758 -122.714982 2 18830ft 360kts
22-Aug-18 19:45 44.631716 -122.705547 2 17536ft 333kts
22-Aug-18 19:46 44.722414 -122.696397 2 15832ft 322kts
22-Aug-18 19:47 44.810082 -122.687545 2 14169ft 313kts
22-Aug-18 19:48 44.895682 -122.678926 2 12553ft 305kts
22-Aug-18 19:49 44.976727 -122.670757 1 11610ft 281kts
22-Aug-18 19:50 45.053075 -122.663009 1 10342ft 272kts
22-Aug-18 19:51 45.119411 -122.615652 36 8820ft 281kts
22-Aug-18 19:52 45.179409 -122.548322 36 7504ft 276kts
22-Aug-18 19:53 45.239202 -122.481813 36 6214ft 271kts
22-Aug-18 19:54 45.295098 -122.419098 35 5685ft 240kts
22-Aug-18 19:55 45.348265 -122.370905 17 5001ft 222kts
22-Aug-18 19:56 45.405014 -122.341639 19 4328ft 209kts
22-Aug-18 19:57 45.456897 -122.314378 21 3712ft 187kts
22-Aug-18 19:58 45.492249 -122.356390 300 3533ft 190kts
22-Aug-18 19:59 45.516836 -122.419887 301 2620ft 188kts
22-Aug-18 20:00 45.538471 -122.475676 301 1721ft 140kts
22-Aug-18 20:01 45.557434 -122.524426 297 981ft 139kts
22-Aug-18 20:02 45.575450 -122.570961 302 232ft 126kts
22-Aug-18 20:03 45.586534 -122.597293 9 38ft 15kts
22-Aug-18 20:04 45.588178 -122.595803 38 38ft 1kts

Navigation Log

Ident Type
1. KSFO Airport
2. KPDX Airport